sensor_id;sensor_type;location;lat;lon;timestamp;P1;durP1;ratioP1;P2;durP2;ratioP2
31798;SDS011;18374;51.136;3.502;2023-09-12T00:01:16;7.80;;;3.63;;
31798;SDS011;18374;51.136;3.502;2023-09-12T00:03:44;8.15;;;4.75;;
31798;SDS011;18374;51.136;3.502;2023-09-12T00:06:11;8.48;;;4.68;;
31798;SDS011;18374;51.136;3.502;2023-09-12T00:08:39;6.82;;;3.60;;
31798;SDS011;18374;51.136;3.502;2023-09-12T00:11:08;8.05;;;4.43;;
31798;SDS011;18374;51.136;3.502;2023-09-12T00:13:39;9.10;;;4.22;;
31798;SDS011;18374;51.136;3.502;2023-09-12T00:16:08;8.13;;;4.55;;
31798;SDS011;18374;51.136;3.502;2023-09-12T00:18:39;6.72;;;4.20;;
31798;SDS011;18374;51.136;3.502;2023-09-12T00:21:08;6.25;;;4.00;;
31798;SDS011;18374;51.136;3.502;2023-09-12T00:23:36;7.03;;;3.97;;
31798;SDS011;18374;51.136;3.502;2023-09-12T00:26:03;5.60;;;3.22;;
31798;SDS011;18374;51.136;3.502;2023-09-12T00:28:31;7.97;;;4.22;;
31798;SDS011;18374;51.136;3.502;2023-09-12T00:31:01;7.03;;;3.72;;
31798;SDS011;18374;51.136;3.502;2023-09-12T00:33:29;6.55;;;4.35;;
31798;SDS011;18374;51.136;3.502;2023-09-12T00:35:57;7.38;;;3.35;;
31798;SDS011;18374;51.136;3.502;2023-09-12T00:38:25;6.57;;;2.88;;
31798;SDS011;18374;51.136;3.502;2023-09-12T00:40:53;9.35;;;3.97;;
31798;SDS011;18374;51.136;3.502;2023-09-12T00:43:20;5.93;;;3.88;;
31798;SDS011;18374;51.136;3.502;2023-09-12T00:45:48;7.00;;;3.47;;
31798;SDS011;18374;51.136;3.502;2023-09-12T00:48:17;8.68;;;4.05;;
31798;SDS011;18374;51.136;3.502;2023-09-12T00:50:50;5.05;;;2.83;;
31798;SDS011;18374;51.136;3.502;2023-09-12T00:53:20;5.60;;;2.67;;
31798;SDS011;18374;51.136;3.502;2023-09-12T00:55:50;7.53;;;3.60;;
31798;SDS011;18374;51.136;3.502;2023-09-12T00:58:23;5.28;;;3.13;;
31798;SDS011;18374;51.136;3.502;2023-09-12T01:00:52;6.80;;;3.10;;
31798;SDS011;18374;51.136;3.502;2023-09-12T01:03:21;5.07;;;3.45;;
31798;SDS011;18374;51.136;3.502;2023-09-12T01:05:48;5.07;;;2.92;;
31798;SDS011;18374;51.136;3.502;2023-09-12T01:08:16;7.10;;;2.67;;
31798;SDS011;18374;51.136;3.502;2023-09-12T01:10:45;5.63;;;2.72;;
31798;SDS011;18374;51.136;3.502;2023-09-12T01:13:15;7.95;;;3.67;;
31798;SDS011;18374;51.136;3.502;2023-09-12T01:15:43;4.50;;;2.80;;
31798;SDS011;18374;51.136;3.502;2023-09-12T01:18:11;5.47;;;2.80;;
31798;SDS011;18374;51.136;3.502;2023-09-12T01:20:41;7.78;;;3.60;;
31798;SDS011;18374;51.136;3.502;2023-09-12T01:23:55;7.68;;;3.50;;
31798;SDS011;18374;51.136;3.502;2023-09-12T01:29:53;6.53;;;3.92;;
31798;SDS011;18374;51.136;3.502;2023-09-12T01:32:31;9.82;;;4.75;;
31798;SDS011;18374;51.136;3.502;2023-09-12T01:35:02;10.77;;;4.60;;
31798;SDS011;18374;51.136;3.502;2023-09-12T01:37:31;7.30;;;4.15;;
31798;SDS011;18374;51.136;3.502;2023-09-12T01:39:59;11.82;;;5.50;;
31798;SDS011;18374;51.136;3.502;2023-09-12T01:42:30;8.82;;;4.40;;
31798;SDS011;18374;51.136;3.502;2023-09-12T01:45:04;7.73;;;4.23;;
31798;SDS011;18374;51.136;3.502;2023-09-12T01:47:36;11.32;;;4.97;;
31798;SDS011;18374;51.136;3.502;2023-09-12T01:50:06;11.15;;;4.78;;
31798;SDS011;18374;51.136;3.502;2023-09-12T01:52:40;7.97;;;4.75;;
31798;SDS011;18374;51.136;3.502;2023-09-12T01:55:08;9.73;;;5.05;;
31798;SDS011;18374;51.136;3.502;2023-09-12T01:57:37;7.60;;;4.68;;
31798;SDS011;18374;51.136;3.502;2023-09-12T02:00:06;7.47;;;3.22;;
31798;SDS011;18374;51.136;3.502;2023-09-12T02:02:35;8.25;;;4.40;;
31798;SDS011;18374;51.136;3.502;2023-09-12T02:05:16;5.28;;;3.10;;
31798;SDS011;18374;51.136;3.502;2023-09-12T02:07:46;5.28;;;3.63;;
31798;SDS011;18374;51.136;3.502;2023-09-12T02:10:15;5.90;;;3.47;;
31798;SDS011;18374;51.136;3.502;2023-09-12T02:12:43;5.07;;;3.55;;
31798;SDS011;18374;51.136;3.502;2023-09-12T02:15:11;7.45;;;4.03;;
31798;SDS011;18374;51.136;3.502;2023-09-12T02:17:39;7.80;;;3.95;;
31798;SDS011;18374;51.136;3.502;2023-09-12T02:20:08;6.00;;;3.38;;
31798;SDS011;18374;51.136;3.502;2023-09-12T02:22:36;9.10;;;4.35;;
31798;SDS011;18374;51.136;3.502;2023-09-12T02:25:05;7.00;;;4.10;;
31798;SDS011;18374;51.136;3.502;2023-09-12T02:27:35;8.02;;;4.75;;
31798;SDS011;18374;51.136;3.502;2023-09-12T02:30:03;7.60;;;4.22;;
31798;SDS011;18374;51.136;3.502;2023-09-12T02:32:32;7.82;;;4.13;;
31798;SDS011;18374;51.136;3.502;2023-09-12T02:34:59;9.43;;;4.50;;
31798;SDS011;18374;51.136;3.502;2023-09-12T02:37:27;11.38;;;5.90;;
31798;SDS011;18374;51.136;3.502;2023-09-12T02:39:55;7.97;;;4.45;;
31798;SDS011;18374;51.136;3.502;2023-09-12T02:42:22;10.65;;;5.10;;
31798;SDS011;18374;51.136;3.502;2023-09-12T02:44:51;8.55;;;4.22;;
31798;SDS011;18374;51.136;3.502;2023-09-12T02:47:19;11.60;;;5.63;;
31798;SDS011;18374;51.136;3.502;2023-09-12T02:49:47;15.38;;;5.70;;
31798;SDS011;18374;51.136;3.502;2023-09-12T02:52:15;10.93;;;4.97;;
31798;SDS011;18374;51.136;3.502;2023-09-12T02:54:42;16.27;;;6.30;;
31798;SDS011;18374;51.136;3.502;2023-09-12T02:57:10;14.20;;;5.65;;
31798;SDS011;18374;51.136;3.502;2023-09-12T02:59:38;20.98;;;7.32;;
31798;SDS011;18374;51.136;3.502;2023-09-12T03:02:06;20.92;;;6.43;;
31798;SDS011;18374;51.136;3.502;2023-09-12T03:04:35;13.65;;;5.55;;
31798;SDS011;18374;51.136;3.502;2023-09-12T03:07:03;24.60;;;6.55;;
31798;SDS011;18374;51.136;3.502;2023-09-12T03:09:31;16.92;;;6.15;;
31798;SDS011;18374;51.136;3.502;2023-09-12T03:12:03;17.00;;;6.10;;
31798;SDS011;18374;51.136;3.502;2023-09-12T03:14:34;12.60;;;5.78;;
31798;SDS011;18374;51.136;3.502;2023-09-12T03:17:02;16.50;;;6.95;;
31798;SDS011;18374;51.136;3.502;2023-09-12T03:19:31;20.38;;;6.03;;
31798;SDS011;18374;51.136;3.502;2023-09-12T03:21:59;18.98;;;7.35;;
31798;SDS011;18374;51.136;3.502;2023-09-12T03:24:26;16.40;;;5.65;;
31798;SDS011;18374;51.136;3.502;2023-09-12T03:26:56;16.00;;;5.60;;
31798;SDS011;18374;51.136;3.502;2023-09-12T03:29:24;14.00;;;6.28;;
31798;SDS011;18374;51.136;3.502;2023-09-12T03:31:52;17.10;;;5.25;;
31798;SDS011;18374;51.136;3.502;2023-09-12T03:34:20;18.63;;;6.13;;
31798;SDS011;18374;51.136;3.502;2023-09-12T03:36:48;16.77;;;6.03;;
31798;SDS011;18374;51.136;3.502;2023-09-12T03:39:15;17.05;;;6.10;;
31798;SDS011;18374;51.136;3.502;2023-09-12T03:41:43;16.75;;;6.57;;
31798;SDS011;18374;51.136;3.502;2023-09-12T03:44:11;17.05;;;6.10;;
31798;SDS011;18374;51.136;3.502;2023-09-12T03:46:39;22.98;;;6.47;;
31798;SDS011;18374;51.136;3.502;2023-09-12T03:49:07;20.30;;;6.88;;
31798;SDS011;18374;51.136;3.502;2023-09-12T03:51:36;24.33;;;6.93;;
31798;SDS011;18374;51.136;3.502;2023-09-12T03:54:05;19.30;;;6.28;;
31798;SDS011;18374;51.136;3.502;2023-09-12T03:56:33;12.65;;;5.03;;
31798;SDS011;18374;51.136;3.502;2023-09-12T03:59:01;22.20;;;8.15;;
31798;SDS011;18374;51.136;3.502;2023-09-12T04:01:29;20.55;;;6.93;;
31798;SDS011;18374;51.136;3.502;2023-09-12T04:03:57;22.48;;;7.13;;
31798;SDS011;18374;51.136;3.502;2023-09-12T04:06:29;12.35;;;5.25;;
31798;SDS011;18374;51.136;3.502;2023-09-12T04:08:57;16.52;;;6.40;;
31798;SDS011;18374;51.136;3.502;2023-09-12T04:11:25;12.25;;;6.03;;
31798;SDS011;18374;51.136;3.502;2023-09-12T04:14:12;16.38;;;6.15;;
31798;SDS011;18374;51.136;3.502;2023-09-12T04:16:43;14.32;;;5.47;;
31798;SDS011;18374;51.136;3.502;2023-09-12T04:19:12;20.70;;;6.20;;
31798;SDS011;18374;51.136;3.502;2023-09-12T04:21:42;13.07;;;5.97;;
31798;SDS011;18374;51.136;3.502;2023-09-12T04:24:10;12.63;;;5.43;;
31798;SDS011;18374;51.136;3.502;2023-09-12T04:26:39;19.38;;;7.57;;
31798;SDS011;18374;51.136;3.502;2023-09-12T04:29:06;14.52;;;5.97;;
31798;SDS011;18374;51.136;3.502;2023-09-12T04:31:34;16.58;;;7.13;;
31798;SDS011;18374;51.136;3.502;2023-09-12T04:34:02;17.27;;;7.05;;
31798;SDS011;18374;51.136;3.502;2023-09-12T04:36:30;15.90;;;6.93;;
31798;SDS011;18374;51.136;3.502;2023-09-12T04:38:57;14.35;;;6.25;;
31798;SDS011;18374;51.136;3.502;2023-09-12T04:41:25;20.70;;;6.30;;
31798;SDS011;18374;51.136;3.502;2023-09-12T04:43:53;18.33;;;6.07;;
31798;SDS011;18374;51.136;3.502;2023-09-12T04:46:21;18.30;;;6.88;;
31798;SDS011;18374;51.136;3.502;2023-09-12T04:48:48;13.55;;;6.65;;
31798;SDS011;18374;51.136;3.502;2023-09-12T04:51:16;17.00;;;6.75;;
31798;SDS011;18374;51.136;3.502;2023-09-12T04:53:44;18.67;;;7.03;;
31798;SDS011;18374;51.136;3.502;2023-09-12T04:56:12;18.25;;;6.93;;
31798;SDS011;18374;51.136;3.502;2023-09-12T04:58:39;13.20;;;6.25;;
31798;SDS011;18374;51.136;3.502;2023-09-12T05:01:07;13.23;;;5.20;;
31798;SDS011;18374;51.136;3.502;2023-09-12T05:03:37;17.20;;;6.78;;
31798;SDS011;18374;51.136;3.502;2023-09-12T05:06:05;16.35;;;6.78;;
31798;SDS011;18374;51.136;3.502;2023-09-12T05:08:33;18.80;;;6.85;;
31798;SDS011;18374;51.136;3.502;2023-09-12T05:11:01;18.83;;;5.93;;
31798;SDS011;18374;51.136;3.502;2023-09-12T05:13:30;17.02;;;6.72;;
31798;SDS011;18374;51.136;3.502;2023-09-12T05:15:58;17.33;;;6.20;;
31798;SDS011;18374;51.136;3.502;2023-09-12T05:18:26;14.05;;;7.00;;
31798;SDS011;18374;51.136;3.502;2023-09-12T05:20:54;19.05;;;7.05;;
31798;SDS011;18374;51.136;3.502;2023-09-12T05:23:22;21.45;;;8.02;;
31798;SDS011;18374;51.136;3.502;2023-09-12T05:25:50;15.98;;;6.45;;
31798;SDS011;18374;51.136;3.502;2023-09-12T05:28:18;18.85;;;6.43;;
31798;SDS011;18374;51.136;3.502;2023-09-12T05:30:49;19.90;;;6.78;;
31798;SDS011;18374;51.136;3.502;2023-09-12T05:33:17;17.98;;;7.40;;
31798;SDS011;18374;51.136;3.502;2023-09-12T05:35:47;17.48;;;8.25;;
31798;SDS011;18374;51.136;3.502;2023-09-12T05:38:15;15.52;;;7.22;;
31798;SDS011;18374;51.136;3.502;2023-09-12T05:40:43;17.25;;;6.75;;
31798;SDS011;18374;51.136;3.502;2023-09-12T05:43:10;13.43;;;6.05;;
31798;SDS011;18374;51.136;3.502;2023-09-12T05:45:38;10.35;;;5.22;;
31798;SDS011;18374;51.136;3.502;2023-09-12T05:48:06;14.00;;;6.00;;
31798;SDS011;18374;51.136;3.502;2023-09-12T05:50:35;13.30;;;6.50;;
31798;SDS011;18374;51.136;3.502;2023-09-12T05:53:05;14.90;;;5.72;;
31798;SDS011;18374;51.136;3.502;2023-09-12T05:55:35;14.63;;;6.72;;
31798;SDS011;18374;51.136;3.502;2023-09-12T05:58:03;10.60;;;5.38;;
31798;SDS011;18374;51.136;3.502;2023-09-12T06:00:34;10.75;;;5.68;;
31798;SDS011;18374;51.136;3.502;2023-09-12T06:03:02;12.82;;;6.43;;
31798;SDS011;18374;51.136;3.502;2023-09-12T06:05:30;17.20;;;5.70;;
31798;SDS011;18374;51.136;3.502;2023-09-12T06:07:58;10.70;;;5.20;;
31798;SDS011;18374;51.136;3.502;2023-09-12T06:10:26;8.73;;;4.97;;
31798;SDS011;18374;51.136;3.502;2023-09-12T06:12:54;10.98;;;5.13;;
31798;SDS011;18374;51.136;3.502;2023-09-12T06:15:22;10.75;;;4.80;;
31798;SDS011;18374;51.136;3.502;2023-09-12T06:17:50;10.52;;;4.38;;
31798;SDS011;18374;51.136;3.502;2023-09-12T06:20:18;12.88;;;5.68;;
31798;SDS011;18374;51.136;3.502;2023-09-12T06:22:46;14.05;;;5.78;;
31798;SDS011;18374;51.136;3.502;2023-09-12T06:25:13;11.20;;;5.38;;
31798;SDS011;18374;51.136;3.502;2023-09-12T06:27:41;12.15;;;5.10;;
31798;SDS011;18374;51.136;3.502;2023-09-12T06:30:09;9.77;;;4.75;;
31798;SDS011;18374;51.136;3.502;2023-09-12T06:32:38;11.85;;;4.47;;
31798;SDS011;18374;51.136;3.502;2023-09-12T06:35:06;9.80;;;4.95;;
31798;SDS011;18374;51.136;3.502;2023-09-12T06:37:34;8.55;;;3.63;;
31798;SDS011;18374;51.136;3.502;2023-09-12T06:40:02;8.50;;;4.53;;
31798;SDS011;18374;51.136;3.502;2023-09-12T06:42:30;10.35;;;5.05;;
31798;SDS011;18374;51.136;3.502;2023-09-12T06:44:58;9.13;;;4.90;;
31798;SDS011;18374;51.136;3.502;2023-09-12T06:47:26;11.40;;;5.07;;
31798;SDS011;18374;51.136;3.502;2023-09-12T06:49:54;8.98;;;4.07;;
31798;SDS011;18374;51.136;3.502;2023-09-12T06:52:22;11.52;;;5.57;;
31798;SDS011;18374;51.136;3.502;2023-09-12T06:54:50;10.85;;;4.95;;
31798;SDS011;18374;51.136;3.502;2023-09-12T06:57:18;12.45;;;5.45;;
31798;SDS011;18374;51.136;3.502;2023-09-12T06:59:46;12.23;;;5.55;;
31798;SDS011;18374;51.136;3.502;2023-09-12T07:02:16;10.98;;;5.40;;
31798;SDS011;18374;51.136;3.502;2023-09-12T07:04:45;11.15;;;5.60;;
31798;SDS011;18374;51.136;3.502;2023-09-12T07:07:13;15.07;;;5.43;;
31798;SDS011;18374;51.136;3.502;2023-09-12T07:09:41;11.02;;;6.30;;
31798;SDS011;18374;51.136;3.502;2023-09-12T07:12:08;12.05;;;5.38;;
31798;SDS011;18374;51.136;3.502;2023-09-12T07:14:36;13.65;;;5.53;;
31798;SDS011;18374;51.136;3.502;2023-09-12T07:17:05;12.75;;;5.45;;
31798;SDS011;18374;51.136;3.502;2023-09-12T07:19:33;13.40;;;5.15;;
31798;SDS011;18374;51.136;3.502;2023-09-12T07:22:01;10.63;;;5.63;;
31798;SDS011;18374;51.136;3.502;2023-09-12T07:24:29;14.20;;;6.32;;
31798;SDS011;18374;51.136;3.502;2023-09-12T07:26:57;11.70;;;4.45;;
31798;SDS011;18374;51.136;3.502;2023-09-12T07:29:25;8.10;;;4.53;;
31798;SDS011;18374;51.136;3.502;2023-09-12T07:31:53;11.48;;;6.25;;
31798;SDS011;18374;51.136;3.502;2023-09-12T07:34:23;11.60;;;4.82;;
31798;SDS011;18374;51.136;3.502;2023-09-12T07:36:51;13.25;;;5.97;;
31798;SDS011;18374;51.136;3.502;2023-09-12T07:39:20;8.90;;;4.88;;
31798;SDS011;18374;51.136;3.502;2023-09-12T07:41:48;11.52;;;5.55;;
31798;SDS011;18374;51.136;3.502;2023-09-12T07:44:16;9.43;;;4.85;;
31798;SDS011;18374;51.136;3.502;2023-09-12T07:46:44;11.40;;;5.32;;
31798;SDS011;18374;51.136;3.502;2023-09-12T07:49:11;13.82;;;7.07;;
31798;SDS011;18374;51.136;3.502;2023-09-12T07:51:39;10.73;;;5.40;;
31798;SDS011;18374;51.136;3.502;2023-09-12T07:54:07;9.40;;;4.78;;
31798;SDS011;18374;51.136;3.502;2023-09-12T07:56:35;10.93;;;4.85;;
31798;SDS011;18374;51.136;3.502;2023-09-12T07:59:02;13.35;;;4.43;;
31798;SDS011;18374;51.136;3.502;2023-09-12T08:01:30;11.20;;;5.47;;
31798;SDS011;18374;51.136;3.502;2023-09-12T08:03:58;11.73;;;5.25;;
31798;SDS011;18374;51.136;3.502;2023-09-12T08:06:26;9.82;;;4.43;;
31798;SDS011;18374;51.136;3.502;2023-09-12T08:08:54;15.15;;;6.03;;
31798;SDS011;18374;51.136;3.502;2023-09-12T08:11:22;16.63;;;6.05;;
31798;SDS011;18374;51.136;3.502;2023-09-12T08:13:49;11.40;;;4.82;;
31798;SDS011;18374;51.136;3.502;2023-09-12T08:16:17;10.93;;;5.35;;
31798;SDS011;18374;51.136;3.502;2023-09-12T08:18:45;13.95;;;5.47;;
31798;SDS011;18374;51.136;3.502;2023-09-12T08:21:13;13.80;;;5.65;;
31798;SDS011;18374;51.136;3.502;2023-09-12T08:23:41;10.63;;;6.05;;
31798;SDS011;18374;51.136;3.502;2023-09-12T08:26:10;17.63;;;6.10;;
31798;SDS011;18374;51.136;3.502;2023-09-12T08:28:38;9.93;;;5.50;;
31798;SDS011;18374;51.136;3.502;2023-09-12T08:31:05;13.73;;;5.50;;
31798;SDS011;18374;51.136;3.502;2023-09-12T08:33:33;11.57;;;5.25;;
31798;SDS011;18374;51.136;3.502;2023-09-12T08:36:01;14.55;;;6.20;;
31798;SDS011;18374;51.136;3.502;2023-09-12T08:38:29;11.80;;;5.53;;
31798;SDS011;18374;51.136;3.502;2023-09-12T08:40:56;11.70;;;5.75;;
31798;SDS011;18374;51.136;3.502;2023-09-12T08:43:24;13.38;;;7.22;;
31798;SDS011;18374;51.136;3.502;2023-09-12T08:45:53;15.05;;;6.30;;
31798;SDS011;18374;51.136;3.502;2023-09-12T08:48:22;14.27;;;5.20;;
31798;SDS011;18374;51.136;3.502;2023-09-12T08:50:51;17.95;;;6.57;;
31798;SDS011;18374;51.136;3.502;2023-09-12T08:53:21;10.32;;;5.60;;
31798;SDS011;18374;51.136;3.502;2023-09-12T08:55:50;12.15;;;6.55;;
31798;SDS011;18374;51.136;3.502;2023-09-12T08:58:19;14.27;;;6.82;;
31798;SDS011;18374;51.136;3.502;2023-09-12T09:00:49;17.63;;;7.05;;
31798;SDS011;18374;51.136;3.502;2023-09-12T09:03:18;14.63;;;5.97;;
31798;SDS011;18374;51.136;3.502;2023-09-12T09:05:48;13.23;;;6.05;;
31798;SDS011;18374;51.136;3.502;2023-09-12T09:08:18;19.63;;;7.25;;
31798;SDS011;18374;51.136;3.502;2023-09-12T09:10:58;18.02;;;6.35;;
31798;SDS011;18374;51.136;3.502;2023-09-12T09:13:32;11.88;;;6.22;;
31798;SDS011;18374;51.136;3.502;2023-09-12T09:16:13;12.75;;;6.38;;
31798;SDS011;18374;51.136;3.502;2023-09-12T09:21:24;18.52;;;8.73;;
31798;SDS011;18374;51.136;3.502;2023-09-12T09:23:59;12.63;;;6.78;;
31798;SDS011;18374;51.136;3.502;2023-09-12T09:26:43;14.10;;;8.07;;
31798;SDS011;18374;51.136;3.502;2023-09-12T09:29:17;16.60;;;7.07;;
31798;SDS011;18374;51.136;3.502;2023-09-12T09:31:48;13.88;;;5.55;;
31798;SDS011;18374;51.136;3.502;2023-09-12T09:34:19;17.02;;;7.25;;
31798;SDS011;18374;51.136;3.502;2023-09-12T09:36:49;15.75;;;7.28;;
31798;SDS011;18374;51.136;3.502;2023-09-12T09:39:21;18.58;;;7.72;;
31798;SDS011;18374;51.136;3.502;2023-09-12T09:41:56;16.70;;;7.97;;
31798;SDS011;18374;51.136;3.502;2023-09-12T09:44:25;19.02;;;7.50;;
31798;SDS011;18374;51.136;3.502;2023-09-12T09:46:55;25.02;;;8.68;;
31798;SDS011;18374;51.136;3.502;2023-09-12T09:49:32;21.40;;;8.55;;
31798;SDS011;18374;51.136;3.502;2023-09-12T09:52:05;24.33;;;8.52;;
31798;SDS011;18374;51.136;3.502;2023-09-12T09:54:33;19.63;;;9.85;;
31798;SDS011;18374;51.136;3.502;2023-09-12T09:57:01;20.25;;;8.68;;
31798;SDS011;18374;51.136;3.502;2023-09-12T09:59:29;26.05;;;8.43;;
31798;SDS011;18374;51.136;3.502;2023-09-12T10:01:58;19.45;;;8.93;;
31798;SDS011;18374;51.136;3.502;2023-09-12T10:04:27;19.40;;;7.47;;
31798;SDS011;18374;51.136;3.502;2023-09-12T10:06:56;16.65;;;7.53;;
31798;SDS011;18374;51.136;3.502;2023-09-12T10:09:26;15.82;;;7.43;;
31798;SDS011;18374;51.136;3.502;2023-09-12T10:11:54;16.77;;;7.57;;
31798;SDS011;18374;51.136;3.502;2023-09-12T10:14:23;23.30;;;8.82;;
31798;SDS011;18374;51.136;3.502;2023-09-12T10:17:00;20.20;;;7.07;;
31798;SDS011;18374;51.136;3.502;2023-09-12T10:19:43;17.08;;;8.07;;
31798;SDS011;18374;51.136;3.502;2023-09-12T10:22:25;17.00;;;8.20;;
31798;SDS011;18374;51.136;3.502;2023-09-12T10:24:59;19.63;;;8.18;;
31798;SDS011;18374;51.136;3.502;2023-09-12T10:27:28;16.80;;;7.90;;
31798;SDS011;18374;51.136;3.502;2023-09-12T10:29:57;20.02;;;7.88;;
31798;SDS011;18374;51.136;3.502;2023-09-12T10:32:27;21.30;;;8.23;;
31798;SDS011;18374;51.136;3.502;2023-09-12T10:34:58;14.77;;;6.68;;
31798;SDS011;18374;51.136;3.502;2023-09-12T10:37:27;17.55;;;7.97;;
31798;SDS011;18374;51.136;3.502;2023-09-12T10:39:58;15.85;;;7.22;;
31798;SDS011;18374;51.136;3.502;2023-09-12T10:42:28;17.73;;;7.13;;
31798;SDS011;18374;51.136;3.502;2023-09-12T10:44:56;14.70;;;7.15;;
31798;SDS011;18374;51.136;3.502;2023-09-12T10:47:26;21.40;;;8.00;;
31798;SDS011;18374;51.136;3.502;2023-09-12T10:49:55;15.93;;;7.43;;
31798;SDS011;18374;51.136;3.502;2023-09-12T10:52:27;19.80;;;7.90;;
31798;SDS011;18374;51.136;3.502;2023-09-12T10:54:56;19.63;;;8.23;;
31798;SDS011;18374;51.136;3.502;2023-09-12T10:57:25;16.15;;;7.32;;
31798;SDS011;18374;51.136;3.502;2023-09-12T11:02:33;21.08;;;9.13;;
31798;SDS011;18374;51.136;3.502;2023-09-12T11:05:04;16.88;;;7.63;;
31798;SDS011;18374;51.136;3.502;2023-09-12T11:12:42;11.93;;;6.38;;
31798;SDS011;18374;51.136;3.502;2023-09-12T11:15:10;16.25;;;7.38;;
31798;SDS011;18374;51.136;3.502;2023-09-12T11:17:42;14.65;;;6.38;;
31798;SDS011;18374;51.136;3.502;2023-09-12T11:20:13;12.63;;;6.43;;
31798;SDS011;18374;51.136;3.502;2023-09-12T11:22:46;12.88;;;6.43;;
31798;SDS011;18374;51.136;3.502;2023-09-12T11:30:18;15.80;;;7.00;;
31798;SDS011;18374;51.136;3.502;2023-09-12T11:32:48;20.77;;;6.95;;
31798;SDS011;18374;51.136;3.502;2023-09-12T11:35:22;13.48;;;6.38;;
31798;SDS011;18374;51.136;3.502;2023-09-12T11:37:56;12.77;;;6.88;;
31798;SDS011;18374;51.136;3.502;2023-09-12T11:43:00;14.95;;;7.03;;
31798;SDS011;18374;51.136;3.502;2023-09-12T11:45:29;19.13;;;7.63;;
31798;SDS011;18374;51.136;3.502;2023-09-12T11:47:56;15.30;;;7.50;;
31798;SDS011;18374;51.136;3.502;2023-09-12T11:50:34;12.77;;;7.50;;
31798;SDS011;18374;51.136;3.502;2023-09-12T11:53:07;13.18;;;7.07;;
31798;SDS011;18374;51.136;3.502;2023-09-12T11:55:45;17.08;;;8.25;;
31798;SDS011;18374;51.136;3.502;2023-09-12T11:58:15;17.80;;;7.10;;
31798;SDS011;18374;51.136;3.502;2023-09-12T12:00:54;16.70;;;7.63;;
31798;SDS011;18374;51.136;3.502;2023-09-12T12:03:25;16.48;;;7.22;;
31798;SDS011;18374;51.136;3.502;2023-09-12T12:05:55;19.20;;;9.57;;
31798;SDS011;18374;51.136;3.502;2023-09-12T12:08:23;15.32;;;7.40;;
31798;SDS011;18374;51.136;3.502;2023-09-12T12:10:54;19.52;;;8.43;;
31798;SDS011;18374;51.136;3.502;2023-09-12T12:13:24;17.80;;;7.25;;
31798;SDS011;18374;51.136;3.502;2023-09-12T12:15:55;16.27;;;7.40;;
31798;SDS011;18374;51.136;3.502;2023-09-12T12:18:24;17.52;;;8.77;;
31798;SDS011;18374;51.136;3.502;2023-09-12T12:20:53;18.35;;;7.63;;
31798;SDS011;18374;51.136;3.502;2023-09-12T12:23:21;20.05;;;8.65;;
31798;SDS011;18374;51.136;3.502;2023-09-12T12:25:50;20.85;;;8.52;;
31798;SDS011;18374;51.136;3.502;2023-09-12T12:28:17;16.63;;;6.85;;
31798;SDS011;18374;51.136;3.502;2023-09-12T12:30:45;16.13;;;8.55;;
31798;SDS011;18374;51.136;3.502;2023-09-12T12:33:14;13.57;;;7.72;;
31798;SDS011;18374;51.136;3.502;2023-09-12T12:36:02;12.98;;;7.05;;
31798;SDS011;18374;51.136;3.502;2023-09-12T12:38:36;14.05;;;7.50;;
31798;SDS011;18374;51.136;3.502;2023-09-12T12:41:26;14.27;;;7.60;;
31798;SDS011;18374;51.136;3.502;2023-09-12T12:44:15;18.40;;;8.02;;
31798;SDS011;18374;51.136;3.502;2023-09-12T12:46:48;14.63;;;7.20;;
31798;SDS011;18374;51.136;3.502;2023-09-12T12:51:48;13.98;;;7.45;;
31798;SDS011;18374;51.136;3.502;2023-09-12T12:54:16;14.50;;;8.13;;
31798;SDS011;18374;51.136;3.502;2023-09-12T12:56:44;15.25;;;8.07;;
31798;SDS011;18374;51.136;3.502;2023-09-12T12:59:14;13.82;;;7.78;;
31798;SDS011;18374;51.136;3.502;2023-09-12T13:01:43;11.77;;;6.55;;
31798;SDS011;18374;51.136;3.502;2023-09-12T13:04:11;12.38;;;6.15;;
31798;SDS011;18374;51.136;3.502;2023-09-12T13:06:39;11.02;;;6.20;;
31798;SDS011;18374;51.136;3.502;2023-09-12T13:09:08;14.18;;;6.63;;
31798;SDS011;18374;51.136;3.502;2023-09-12T13:11:38;14.20;;;6.90;;
31798;SDS011;18374;51.136;3.502;2023-09-12T13:14:07;14.38;;;7.07;;
31798;SDS011;18374;51.136;3.502;2023-09-12T13:16:38;14.50;;;7.18;;
31798;SDS011;18374;51.136;3.502;2023-09-12T13:19:09;12.63;;;7.20;;
31798;SDS011;18374;51.136;3.502;2023-09-12T13:21:38;15.38;;;7.65;;
31798;SDS011;18374;51.136;3.502;2023-09-12T13:24:06;11.00;;;6.25;;
31798;SDS011;18374;51.136;3.502;2023-09-12T13:26:34;13.20;;;6.97;;
31798;SDS011;18374;51.136;3.502;2023-09-12T13:29:02;18.77;;;7.10;;
31798;SDS011;18374;51.136;3.502;2023-09-12T13:31:29;15.52;;;7.45;;
31798;SDS011;18374;51.136;3.502;2023-09-12T13:33:59;11.68;;;5.78;;
31798;SDS011;18374;51.136;3.502;2023-09-12T13:36:26;14.30;;;7.93;;
31798;SDS011;18374;51.136;3.502;2023-09-12T13:38:54;12.45;;;6.18;;
31798;SDS011;18374;51.136;3.502;2023-09-12T13:41:23;13.48;;;6.15;;
31798;SDS011;18374;51.136;3.502;2023-09-12T13:43:52;13.95;;;6.45;;
31798;SDS011;18374;51.136;3.502;2023-09-12T13:46:20;13.07;;;6.15;;
31798;SDS011;18374;51.136;3.502;2023-09-12T13:48:48;12.23;;;6.80;;
31798;SDS011;18374;51.136;3.502;2023-09-12T13:51:16;12.63;;;7.25;;
31798;SDS011;18374;51.136;3.502;2023-09-12T13:53:44;13.80;;;7.80;;
31798;SDS011;18374;51.136;3.502;2023-09-12T13:56:12;15.90;;;7.32;;
31798;SDS011;18374;51.136;3.502;2023-09-12T13:58:40;11.55;;;6.60;;
31798;SDS011;18374;51.136;3.502;2023-09-12T14:01:11;11.80;;;6.60;;
31798;SDS011;18374;51.136;3.502;2023-09-12T14:03:51;11.52;;;6.35;;
31798;SDS011;18374;51.136;3.502;2023-09-12T14:06:20;10.85;;;5.80;;
31798;SDS011;18374;51.136;3.502;2023-09-12T14:08:49;8.77;;;4.25;;
31798;SDS011;18374;51.136;3.502;2023-09-12T14:11:17;8.48;;;5.00;;
31798;SDS011;18374;51.136;3.502;2023-09-12T14:13:58;10.82;;;5.30;;
31798;SDS011;18374;51.136;3.502;2023-09-12T14:16:42;10.07;;;5.05;;
31798;SDS011;18374;51.136;3.502;2023-09-12T14:19:14;10.88;;;4.97;;
31798;SDS011;18374;51.136;3.502;2023-09-12T14:21:43;7.20;;;4.07;;
31798;SDS011;18374;51.136;3.502;2023-09-12T14:24:15;13.13;;;5.22;;
31798;SDS011;18374;51.136;3.502;2023-09-12T14:26:47;6.60;;;3.88;;
31798;SDS011;18374;51.136;3.502;2023-09-12T14:29:16;5.50;;;3.75;;
31798;SDS011;18374;51.136;3.502;2023-09-12T14:31:44;9.05;;;4.57;;
31798;SDS011;18374;51.136;3.502;2023-09-12T14:34:19;6.50;;;4.17;;
31798;SDS011;18374;51.136;3.502;2023-09-12T14:36:46;8.77;;;4.20;;
31798;SDS011;18374;51.136;3.502;2023-09-12T14:39:15;5.82;;;4.38;;
31798;SDS011;18374;51.136;3.502;2023-09-12T14:41:42;6.15;;;3.72;;
31798;SDS011;18374;51.136;3.502;2023-09-12T14:44:11;10.38;;;4.60;;
31798;SDS011;18374;51.136;3.502;2023-09-12T14:46:39;9.30;;;5.25;;
31798;SDS011;18374;51.136;3.502;2023-09-12T14:49:06;7.78;;;4.85;;
31798;SDS011;18374;51.136;3.502;2023-09-12T14:51:35;6.07;;;4.43;;
31798;SDS011;18374;51.136;3.502;2023-09-12T14:54:03;10.38;;;5.68;;
31798;SDS011;18374;51.136;3.502;2023-09-12T14:56:32;8.32;;;4.30;;
31798;SDS011;18374;51.136;3.502;2023-09-12T14:59:01;11.30;;;5.47;;
31798;SDS011;18374;51.136;3.502;2023-09-12T15:01:31;7.18;;;4.25;;
31798;SDS011;18374;51.136;3.502;2023-09-12T15:03:59;10.93;;;5.55;;
31798;SDS011;18374;51.136;3.502;2023-09-12T15:06:28;10.13;;;5.80;;
31798;SDS011;18374;51.136;3.502;2023-09-12T15:09:00;8.05;;;4.93;;
31798;SDS011;18374;51.136;3.502;2023-09-12T15:11:28;9.07;;;5.97;;
31798;SDS011;18374;51.136;3.502;2023-09-12T15:13:58;6.82;;;4.78;;
31798;SDS011;18374;51.136;3.502;2023-09-12T15:16:27;8.45;;;5.75;;